• Join FlightAware (Why Join?)
  • Login
  • US Flag 
03:26AM EDT


 

Airport Tracker/Info


-or-


 

Live Flight TrackerFlight Track Log ✈ ASQ4940 ✈ 17-Jul-2013 ✈ KMSN - KATL

Flight Track Log - Related Links

Times and Time Zones

All times are in EDT time to prevent confusion due to time zone crossing. See the ASQ4940 flight status page for this flight to view local times or setup timezone preferences in your user account.

Time Position Orientation Groundspeed Altitude Reporting Facility
EDT Latitude Longitude Course Direction KTS MPH feet Rate Location/Type
12:07PM 43.2122 -89.2792 150° Southeast 205 236 4,200  Level Chicago Center
12:08PM 43.2272 -89.1839 78° East 255 293 5,900 1,980 Climbing Chicago Center
12:09PM 43.1833 -89.1111 130° Southeast 286 329 8,300 1,980 Climbing Chicago Center
12:10PM 43.0858 -89.1078 179° South 300 345 10,100 1,680 Climbing Chicago Center
12:11PM 42.9858 -89.1036 178° South 354 407 11,900 1,860 Climbing Chicago Center
12:12PM 42.5094 -89.0610 150° Southeast  Level FlightAware Approximate
12:12PM 42.9103 -89.0106 138° Southeast 373 429 14,000  Level Chicago Center
12:13PM 42.8497 -88.9064 128° Southeast 356 410 16,900 2,040 Climbing Chicago Center
12:14PM 42.7833 -88.8169 135° Southeast 349 402 18,300 1,740 Climbing Chicago Center
12:15PM 42.6781 -88.7706 162° South 342 394 20,500 1,740 Climbing Chicago Center
12:16PM 42.5856 -88.7333 163° South 347 399 21,900 1,140 Climbing Chicago Center
12:17PM 42.4869 -88.6933 163° South 366 421 22,900 960 Climbing Chicago Center
12:18PM 42.3822 -88.6514 164° South 388 447 23,900 960 Climbing Chicago Center
12:19PM 42.2711 -88.5822 155° Southeast 406 467 25,000 900 Climbing Chicago Center
12:20PM 42.1719 -88.4947 147° Southeast 430 495 25,800 720 Climbing Chicago Center
12:21PM 42.0717 -88.4047 146° Southeast 434 499 26,600 720 Climbing Chicago Center
12:22PM 41.9519 -88.3656 166° South 448 516 27,400 840 Climbing Chicago Center
12:23PM 41.8086 -88.3194 167° South 446 513 28,400 780 Climbing Chicago Center
12:24PM 41.6878 -88.2836 168° South 449 517 29,100 720 Climbing Chicago Center
12:25PM 41.5661 -88.2467 167° South 452 520 30,000 900 Climbing Chicago Center
12:26PM 41.4467 -88.2111 167° South 452 520 31,000 1,020 Climbing Chicago Center
12:27PM 41.3033 -88.1653 166° South 457 526 32,200 1,020 Climbing Chicago Center
12:28PM 41.1836 -88.1275 167° South 452 520 33,200 960 Climbing Chicago Center
12:29PM 41.0664 -88.0900 166° South 443 510 34,200 840 Climbing Chicago Center
12:31PM 40.9489 -88.0539 167° South 438 504 35,000 360 Climbing Chicago Center
12:32PM 40.8072 -88.0097 167° South 440 506 35,000  Level Chicago Center
12:33PM 40.6839 -87.9722 167° South 454 522 35,000  Level Chicago Center
12:34PM 40.5581 -87.9342 167° South 463 533 35,000  Level Chicago Center
12:35PM 40.4350 -87.8978 167° South 458 527 35,000  Level Chicago Center
12:36PM 40.3119 -87.8611 167° South 456 525 35,000  Level Chicago Center
12:37PM 40.1744 -87.8197 167° South 457 526 35,000  Level Chicago Center
12:38PM 40.0494 -87.7850 168° South 459 528 35,000  Level Chicago Center
12:39PM 39.9272 -87.7481 167° South 458 527 35,000  Level Chicago Center
12:40PM 39.8022 -87.7119 167° South 460 529 35,000  Level Chicago Center
12:41PM 39.6525 -87.6675 167° South 465 535 35,000  Level Chicago Center
12:42PM 39.5272 -87.6308 167° South 463 533 35,000  Level Chicago Center
12:43PM 39.4031 -87.5947 167° South 460 529 35,000  Level Chicago Center
12:44PM 39.2769 -87.5592 168° South 467 537 35,000  Level Chicago Center
12:45PM 39.1517 -87.5222 167° South 465 535 35,000  Level Chicago Center
12:46PM 39.0156 -87.4833 167° South 462 532 35,000  Level Chicago Center
12:47PM 38.8319 -87.4292 167° South 466 536 35,000  Level Indianapolis Center
12:49PM 38.7058 -87.3939 168° South 464 534 35,000  Level Indianapolis Center
12:50PM 38.5550 -87.3514 168° South 463 533 35,000  Level Indianapolis Center
12:51PM 38.4289 -87.3164 168° South 465 535 35,000  Level Indianapolis Center
12:52PM 38.3028 -87.2833 168° South 468 539 35,000  Level Indianapolis Center
12:53PM 38.1778 -87.2456 167° South 471 542 35,000  Level Indianapolis Center
12:54PM 38.0522 -87.2097 167° South 468 539 35,000  Level Indianapolis Center
12:55PM 37.9011 -87.1664 167° South 466 536 35,000  Level Indianapolis Center
12:56PM 37.7750 -87.1297 167° South 465 535 35,000  Level Indianapolis Center
12:57PM 37.6489 -87.0944 168° South 463 533 35,000  Level Indianapolis Center
12:58PM 37.5167 -87.0592 168° South 464 534 35,000  Level Indianapolis Center
12:59PM 37.3900 -87.0272 169° South 461 531 35,000  Level Indianapolis Center
01:00PM 37.2658 -86.9731 161° South 465 535 35,000 -180 Level Indianapolis Center
01:01PM 37.1464 -86.9092 157° South 462 532 34,700 -720 Descending Indianapolis Center
01:02PM 37.0256 -86.8439 157° South 467 537 33,600 -840 Descending Indianapolis Center
01:03PM 36.8831 -86.7675 157° South 470 541 33,000 -360 Descending Indianapolis Center
01:04PM 36.7825 -86.7122 156° South 465 535 33,000  Level Memphis Center
01:05PM 36.6639 -86.6503 157° South 465 535 33,000  Level Memphis Center
01:06PM 36.5347 -86.5811 157° South 460 529 33,000  Level Memphis Center
01:07PM 36.4158 -86.5172 157° South 465 535 33,000  Level Memphis Center
01:08PM 36.2953 -86.4558 158° South 465 535 33,000  Level Memphis Center
01:09PM 36.1744 -86.3947 158° South 460 529 33,000  Level Memphis Center
01:10PM 36.0686 -86.3436 159° South 465 535 33,000  Level Memphis Center
01:11PM 35.9497 -86.2800 157° South 460 529 33,000  Level Memphis Center
01:13PM 35.7478 -86.1753 157° South 460 529 33,000  Level Atlanta Center
01:14PM 35.6339 -86.1161 157° South 454 522 33,000  Level Atlanta Center
01:15PM 35.4994 -86.0514 159° South 463 533 33,000  Level Atlanta Center
01:16PM 35.3753 -85.9897 158° South 474 545 33,000 -540 Level Atlanta Center
01:17PM 35.2553 -85.9286 157° South 474 545 32,000 -1,620 Descending Atlanta Center
01:18PM 35.1350 -85.8675 157° South 467 537 29,800 -2,040 Descending Atlanta Center
01:19PM 35.0236 -85.7939 152° Southeast 461 531 28,000 -1,800 Descending Atlanta Center
01:20PM 34.9183 -85.7131 148° Southeast 456 525 26,200 -1,800 Descending Atlanta Center
01:21PM 34.8131 -85.6250 146° Southeast 451 519 24,400 -1,140 Descending Atlanta Center
01:22PM 34.7056 -85.5447 148° Southeast 456 525 24,000 -1,020 Descending Atlanta Center
01:23PM 34.6083 -85.4697 148° Southeast 436 502 22,400 -1,740 Descending Atlanta Center
01:24PM 34.5153 -85.3975 147° Southeast 413 475 20,600 -1,800 Descending Atlanta Center
01:25PM 34.4261 -85.3281 147° Southeast 400 460 18,800 -1,680 Descending Atlanta Center
01:26PM 34.3392 -85.2589 147° Southeast 383 441 17,300 -1,560 Descending Atlanta Center
01:27PM 34.2542 -85.1922 147° Southeast 376 433 15,700 -1,620 Descending Atlanta Center
01:28PM 34.1694 -85.1258 147° Southeast 371 427 14,100 -1,320 Descending Atlanta Center
01:29PM 34.1072 -85.0522 136° Southeast 360 414 13,100 -600 Descending Atlanta Center
01:30PM 34.0433 -84.9789 136° Southeast 336 387 13,000 -600 Descending Atlanta Center
01:31PM 33.9703 -84.9656 171° South 271 312 12,000 -1,200 Descending Atlanta Center
01:32PM 33.8994 -84.9522 171° South 261 300 10,700 -1,500 Descending Atlanta Center
01:33PM 33.8286 -84.9417 173° South 256 295 9,000 -1,080 Descending Atlanta Center
01:34PM 33.7619 -84.9258 169° South 256 295 8,600 -720 Descending Atlanta Center
01:35PM 33.6911 -84.9100 169° South 256 295 7,600 -960 Descending Atlanta Center
01:35PM 33.6500 -84.8667 139° Southeast 237 273 7,000 -720 Descending Atlanta TRACON
01:36PM 33.6333 -84.8000 107° East 202 232 6,400 -1,020 Descending Atlanta TRACON
01:37PM 33.6333 -84.7333 90° East 194 223 5,000 -900 Descending Atlanta TRACON
01:38PM 33.6333 -84.6833 90° East 184 212 4,600 -720 Descending Atlanta TRACON
01:39PM 33.6333 -84.6167 90° East 193 222 3,600 -960 Descending Atlanta TRACON
01:40PM 33.6333 -84.5500 90° East 154 177 2,700 -840 Descending Atlanta TRACON
01:41PM 33.6333 -84.5000 90° East 145 167 2,000 -720 Descending Atlanta TRACON
01:42PM 33.6333 -84.4667 90° East 144 166 1,300 -720 Descending Atlanta TRACON
01:44PM 33.6367 -84.4279 90° East  Level Estimated
01:51PM 33.6367 -84.4279 90° East  Level Estimated